San Jose Airport Puerto San Jose US
ICAO: MGSJ
IATA: GSJ
Category: Medium
Scheduled Services: Yes

Elevation: 29 ft
TransAlt. 0 ft.

Airport Communications:
TWR:118.5

MGSJ Zoom In..

If you have problems with the map follow the link
https://www.worldairports.se/pages/airport.php?
ICAO=MGSJ

Runways:

(A) RW 15 length 6594 ft width 151 ft
---- / hdg 154

(B) RW 33 length 6594 ft width 151 ft
---- / hdg 334

Location; MGSJ
Day. 13 / Time. 00.00 Zulu
* Altimeter: 29.85
* Temperature: 29° c. 84.2°f.
* Wind from: 000° Speed 00 kn.
Dewpoint: 24° c.
Visibility: 8000 m.
Clouds: Scattered 2200 ft.
Conditions: Smoke.Conditions: Towering CB.

MGSJ 130000Z 00000KT 8000 SCT022TCU 29/24 Q1011 A2985 FU TCU SMC N


Wind - Calm.

 
 
jpsmedia worldairports.se 2019   terms of use